Terminal Aerodrome Forecast
Issued by NWS Lake Charles, LA

Home | Current Version | Previous Version | Text Only | Print | Product List | Glossary On
Versions: 1 2 3 4 5 6 7 8 9 10 11 12 13 14 15 16 17 18 19 20 21 22
000
FTUS44 KLCH 221130
TAFLCH
TAF
KLCH 221130Z 2212/2312 06008KT P6SM BKN010 OVC025
     FM221600 08009KT P6SM VCSH SCT025 BKN035 BKN050
      TEMPO 2216/2220 BKN025
     FM230500 09004KT P6SM VCTS SCT035CB BKN050=

USA.gov is the U.S. government's official web portal to all federal, state and local government web resources and services.